Time;durP1;ratioP1;P1;durP2;ratioP2;P2;SDS_P1;SDS_P2;PMS_P1;PMS_P2;Temp;Humidity;BMP_temperature;BMP_pressure;BME280_temperature;BME280_humidity;BME280_pressure;Samples;Min_cycle;Max_cycle;Signal;HPM_P1;HPM_P2
2021/08/10 00:00:16;;;;;;;26.42;17.02;;;;;;;21.25;69.96;99979.84;5015831;28;20041;-76
2021/08/10 00:02:42;;;;;;;23.15;17.02;;;;;;;21.14;70.03;99961.88;5032192;28;20162;-77
2021/08/10 00:05:08;;;;;;;22.50;17.65;;;;;;;21.02;69.94;99955.41;5030447;28;20072;-77
2021/08/10 00:07:34;;;;;;;27.23;18.90;;;;;;;21.04;70.14;99969.41;5032381;28;20035;-76
2021/08/10 00:10:00;;;;;;;29.70;18.15;;;;;;;21.00;70.16;99975.78;5034526;28;20080;-76
2021/08/10 00:12:26;;;;;;;20.23;16.17;;;;;;;21.00;70.43;99983.72;5020256;28;20075;-75
2021/08/10 00:14:51;;;;;;;26.30;18.50;;;;;;;20.88;70.73;99963.16;5035265;28;20041;-75
2021/08/10 00:17:17;;;;;;;25.23;19.08;;;;;;;20.75;70.81;99947.00;5037015;28;20080;-75
2021/08/10 00:19:43;;;;;;;27.70;19.23;;;;;;;20.84;71.18;99964.25;5038629;28;20045;-76
2021/08/10 00:22:08;;;;;;;23.52;18.08;;;;;;;20.90;71.43;99971.84;5033845;28;20041;-77
2021/08/10 00:24:34;;;;;;;26.13;18.17;;;;;;;20.79;71.45;99963.59;5016256;28;20041;-77
2021/08/10 00:27:01;;;;;;;30.50;18.27;;;;;;;20.79;71.60;99964.44;5033646;28;20092;-75
2021/08/10 00:29:28;;;;;;;25.35;18.33;;;;;;;20.66;71.75;99950.94;4999687;28;20382;-75
2021/08/10 00:31:58;;;;;;;25.45;18.45;;;;;;;20.61;71.56;99937.13;5011344;28;20100;-76
2021/08/10 00:34:24;;;;;;;27.33;19.27;;;;;;;20.60;71.99;99940.69;5011088;28;20038;-76
2021/08/10 00:36:50;;;;;;;27.85;19.67;;;;;;;20.63;72.09;99951.13;5033138;28;20516;-75
2021/08/10 00:39:16;;;;;;;28.45;20.00;;;;;;;20.62;72.38;99944.13;5034773;28;20567;-77
2021/08/10 00:41:42;;;;;;;23.85;17.67;;;;;;;20.57;72.46;99948.75;5032962;28;20042;-77
2021/08/10 00:44:09;;;;;;;26.08;20.45;;;;;;;20.61;72.95;99959.09;5015404;28;20069;-76
2021/08/10 00:46:35;;;;;;;26.90;20.00;;;;;;;20.40;72.67;99934.56;5033185;28;20053;-76
2021/08/10 00:49:01;;;;;;;25.15;20.42;;;;;;;20.54;72.71;99955.03;5035042;28;20619;-77
2021/08/10 00:51:33;;;;;;;29.33;19.98;;;;;;;20.46;72.83;99955.41;5022817;28;20076;-76
2021/08/10 00:54:05;;;;;;;30.67;21.35;;;;;;;20.45;73.16;99958.13;5039039;28;20052;-75
2021/08/10 00:56:32;;;;;;;28.60;21.77;;;;;;;20.46;73.58;99957.19;5022744;28;20053;-76
2021/08/10 00:59:01;;;;;;;31.70;21.65;;;;;;;20.41;73.54;99954.75;5021970;28;20041;-76
2021/08/10 01:01:31;;;;;;;27.83;21.50;;;;;;;20.31;73.96;99950.84;5022075;28;20045;-75
2021/08/10 01:03:59;;;;;;;28.40;20.23;;;;;;;20.39;74.03;99959.28;5021898;28;20064;-75
2021/08/10 01:06:40;;;;;;;30.05;22.65;;;;;;;20.33;73.96;99951.63;5023361;28;20103;-76
2021/08/10 01:09:10;;;;;;;28.05;21.02;;;;;;;20.31;74.06;99951.69;5045140;28;20045;-76
2021/08/10 01:11:50;;;;;;;28.25;23.85;;;;;;;20.17;74.16;99940.94;5048563;28;20589;-76
2021/08/10 01:14:28;;;;;;;31.05;21.45;;;;;;;20.13;74.60;99939.34;5048849;28;20115;-76
2021/08/10 01:17:04;;;;;;;24.15;18.35;;;;;;;20.11;74.88;99936.78;5040146;28;20026;-76
2021/08/10 01:19:45;;;;;;;25.30;21.08;;;;;;;20.09;74.72;99933.38;5048858;28;20060;-76
2021/08/10 01:22:16;;;;;;;30.40;23.35;;;;;;;20.04;74.48;99929.22;5038466;28;20046;-75
2021/08/10 01:24:47;;;;;;;27.92;20.08;;;;;;;20.16;74.59;99945.38;5023269;28;20045;-76
2021/08/10 01:27:32;;;;;;;22.58;19.77;;;;;;;20.21;74.60;99955.72;5021148;28;20100;-77
2021/08/10 01:30:11;;;;;;;29.40;21.08;;;;;;;20.20;74.42;99955.75;5029682;28;20251;-77
2021/08/10 01:32:38;;;;;;;32.47;22.75;;;;;;;20.17;74.48;99962.94;5049889;28;20041;-77
2021/08/10 01:35:07;;;;;;;28.83;21.65;;;;;;;20.15;74.64;99954.22;5050965;28;20064;-73
2021/08/10 01:37:35;;;;;;;31.35;23.25;;;;;;;20.10;74.72;99956.22;5048761;28;20041;-75
2021/08/10 01:40:06;;;;;;;27.90;21.67;;;;;;;20.11;74.62;99964.97;5045880;28;20069;-77
2021/08/10 01:42:41;;;;;;;34.13;24.58;;;;;;;20.00;74.76;99952.25;5044243;28;20027;-76
2021/08/10 01:45:10;;;;;;;28.73;21.48;;;;;;;19.82;75.04;99933.66;5046603;28;20037;-76
2021/08/10 01:47:39;;;;;;;39.33;28.73;;;;;;;19.93;74.84;99950.84;5031035;28;20199;-76
2021/08/10 01:50:09;;;;;;;38.22;26.67;;;;;;;20.00;75.27;99960.19;5034649;28;20038;-76
2021/08/10 01:52:41;;;;;;;30.75;25.08;;;;;;;19.98;75.29;99962.91;5020735;28;20101;-75
2021/08/10 01:55:11;;;;;;;35.08;27.02;;;;;;;19.99;75.05;99963.75;5019489;28;20034;-76
2021/08/10 01:57:40;;;;;;;38.97;27.25;;;;;;;20.00;75.05;99968.09;5037641;28;20069;-76
2021/08/10 02:00:09;;;;;;;31.83;23.58;;;;;;;19.85;75.11;99941.44;5021053;28;20076;-77
2021/08/10 02:02:45;;;;;;;34.13;25.63;;;;;;;19.96;75.26;99967.41;5021945;28;20029;-77
2021/08/10 02:05:23;;;;;;;40.05;26.45;;;;;;;19.88;75.07;99942.28;5057279;28;20030;-76
2021/08/10 02:07:52;;;;;;;41.85;30.02;;;;;;;19.90;75.50;99950.97;5056527;28;20033;-76
2021/08/10 02:10:19;;;;;;;35.47;26.35;;;;;;;19.95;75.42;99962.19;5024637;28;20033;-76
2021/08/10 02:12:45;;;;;;;33.83;25.45;;;;;;;19.93;75.66;99956.97;5056971;28;20032;-76
2021/08/10 02:15:14;;;;;;;38.53;28.73;;;;;;;19.94;75.35;99961.31;5056366;28;20037;-77
2021/08/10 02:17:50;;;;;;;37.05;25.83;;;;;;;19.88;75.59;99947.56;5039212;28;20072;-75
2021/08/10 02:20:24;;;;;;;46.72;31.85;;;;;;;19.80;75.12;99934.66;5055055;28;20108;-77
2021/08/10 02:22:50;;;;;;;40.00;31.00;;;;;;;19.90;75.90;99954.47;5039310;28;20089;-79
2021/08/10 02:25:22;;;;;;;38.35;27.50;;;;;;;19.85;75.94;99935.31;5040122;28;20033;-79
2021/08/10 02:27:57;;;;;;;42.38;30.85;;;;;;;19.95;75.43;99949.84;5056138;28;20040;-76
2021/08/10 02:30:29;;;;;;;47.92;32.25;;;;;;;19.94;75.91;99965.78;5023569;28;20034;-77
2021/08/10 02:32:59;;;;;;;45.75;33.13;;;;;;;19.87;76.10;99949.28;5055651;28;20098;-76
2021/08/10 02:35:28;;;;;;;45.60;31.55;;;;;;;19.93;76.20;99956.97;5055655;28;20028;-77
2021/08/10 02:37:59;;;;;;;42.08;29.52;;;;;;;19.86;76.40;99935.25;5054614;28;20018;-78
2021/08/10 02:40:28;;;;;;;44.72;30.55;;;;;;;20.05;76.13;99965.28;5038870;28;20052;-77
2021/08/10 02:42:59;;;;;;;46.03;32.85;;;;;;;19.97;76.01;99957.72;5053406;28;20041;-75
2021/08/10 02:45:28;;;;;;;45.40;32.42;;;;;;;19.86;76.25;99940.53;5036336;28;20075;-75
2021/08/10 02:47:58;;;;;;;47.83;33.53;;;;;;;19.92;76.65;99954.41;5052328;28;20048;-76
2021/08/10 02:50:30;;;;;;;43.60;31.80;;;;;;;19.96;76.72;99945.44;5048589;28;20103;-74
2021/08/10 02:52:56;;;;;;;49.00;35.10;;;;;;;19.98;76.51;99949.72;5040219;28;20041;-77
2021/08/10 02:55:30;;;;;;;50.95;33.45;;;;;;;19.88;76.69;99934.34;5002883;28;20037;-76
2021/08/10 02:58:18;;;;;;;54.17;35.00;;;;;;;20.10;76.88;99960.63;5003662;28;20056;-77
2021/08/10 03:01:25;;;;;;;49.70;33.22;;;;;;;20.12;77.07;99950.84;5030960;28;20033;-76
2021/08/10 03:03:54;;;;;;;40.08;29.58;;;;;;;20.13;77.16;99956.06;5019227;28;20041;-75
2021/08/10 03:06:22;;;;;;;43.53;32.63;;;;;;;20.25;76.98;99957.28;5036333;28;20525;-76
2021/08/10 03:08:58;;;;;;;42.78;31.98;;;;;;;20.30;76.67;99949.97;5044824;28;20029;-77
2021/08/10 03:11:30;;;;;;;47.35;32.42;;;;;;;20.35;76.74;99957.72;5038398;28;20021;-76
2021/08/10 03:13:57;;;;;;;40.53;30.83;;;;;;;20.29;76.75;99940.38;5055917;28;20021;-76
2021/08/10 03:16:26;;;;;;;42.58;28.55;;;;;;;20.49;76.65;99937.69;5046489;28;20061;-75
2021/08/10 03:18:53;;;;;;;41.15;30.55;;;;;;;20.49;76.26;99932.41;5015810;28;20080;-76
2021/08/10 03:21:21;;;;;;;40.90;28.67;;;;;;;20.58;76.39;99937.25;5032725;28;20045;-78
2021/08/10 03:23:51;;;;;;;44.92;28.95;;;;;;;20.62;76.11;99928.25;5032641;28;20044;-75
2021/08/10 03:26:21;;;;;;;40.30;28.35;;;;;;;20.66;75.77;99932.44;5032591;28;20100;-76
2021/08/10 03:28:48;;;;;;;33.95;25.88;;;;;;;20.63;76.05;99908.81;5033005;28;20048;-77
2021/08/10 03:31:17;;;;;;;35.72;26.85;;;;;;;20.92;76.04;99917.09;5033273;28;20068;-78
2021/08/10 03:33:47;;;;;;;41.38;26.23;;;;;;;21.15;75.76;99933.59;5034158;28;20049;-77
2021/08/10 03:36:14;;;;;;;33.60;24.83;;;;;;;21.25;75.21;99918.97;5033816;28;20052;-77
2021/08/10 03:38:41;;;;;;;34.70;25.90;;;;;;;21.46;75.00;99929.38;5036297;28;20144;-77
2021/08/10 03:41:08;;;;;;;38.35;25.35;;;;;;;21.50;74.90;99915.91;5036045;28;20049;-78
2021/08/10 03:43:36;;;;;;;33.45;22.70;;;;;;;21.72;74.54;99929.84;5033357;28;20038;-76
2021/08/10 03:46:02;;;;;;;34.63;21.10;;;;;;;21.87;73.71;99925.50;5032583;28;20087;-81
2021/08/10 03:48:37;;;;;;;35.60;19.45;;;;;;;21.94;73.48;99916.28;5016246;28;20045;-77
2021/08/10 03:51:04;;;;;;;25.98;18.15;;;;;;;22.12;72.91;99912.63;5011917;28;20188;-79
2021/08/10 03:53:31;;;;;;;31.95;20.20;;;;;;;22.38;72.42;99912.97;5013061;28;20121;-81
2021/08/10 03:55:59;;;;;;;32.80;18.85;;;;;;;22.54;71.61;99925.38;5012234;28;20064;-78
2021/08/10 03:58:35;;;;;;;32.10;17.90;;;;;;;22.69;71.06;99926.28;5013416;28;20103;-76
2021/08/10 04:01:05;;;;;;;33.17;17.92;;;;;;;22.84;70.35;99921.91;4997410;28;20038;-78
2021/08/10 04:03:34;;;;;;;37.95;17.83;;;;;;;22.98;69.59;99913.13;5012730;28;20058;-78
2021/08/10 04:06:03;;;;;;;33.33;17.92;;;;;;;23.27;69.27;99918.56;4996739;28;20045;-77
2021/08/10 04:08:31;;;;;;;31.55;17.55;;;;;;;23.50;68.30;99916.31;5017312;28;20478;-79
2021/08/10 04:10:57;;;;;;;30.08;16.48;;;;;;;23.25;68.14;99851.44;5017048;28;20492;-76
2021/08/10 04:13:25;;;;;;;37.40;23.30;;;;;;;23.91;67.13;99910.22;5031882;28;20048;-75
2021/08/10 04:15:53;;;;;;;68.85;47.42;;;;;;;24.19;66.71;99914.66;5033017;28;20052;-78
2021/08/10 04:18:55;;;;;;;30.35;16.20;;;;;;;24.30;65.81;99891.81;5018581;28;20049;-78
2021/08/10 04:21:29;;;;;;;52.83;29.73;;;;;;;23.95;64.88;99792.16;5009805;28;20107;-78
2021/08/10 04:24:05;;;;;;;30.52;21.77;;;;;;;24.79;63.94;99885.97;4996681;28;20038;-78
2021/08/10 04:26:36;;;;;;;35.10;22.77;;;;;;;25.14;63.21;99897.84;5000755;28;20041;-78
2021/08/10 04:29:03;;;;;;;30.38;21.30;;;;;;;25.11;62.45;99861.66;5019628;28;20033;-79
2021/08/10 04:31:29;;;;;;;24.58;17.40;;;;;;;25.42;61.63;99871.97;5019698;28;20076;-77
2021/08/10 04:33:56;;;;;;;26.20;15.32;;;;;;;25.72;61.42;99894.75;5034563;28;20456;-79
2021/08/10 04:36:22;;;;;;;20.30;15.10;;;;;;;25.96;60.50;99896.63;5018641;28;20038;-78
2021/08/10 04:38:49;;;;;;;23.42;15.30;;;;;;;25.97;60.24;99891.19;5017303;28;20041;-78
2021/08/10 04:41:15;;;;;;;21.60;13.70;;;;;;;26.11;59.68;99876.88;5018080;28;20083;-78
2021/08/10 04:43:52;;;;;;;24.65;15.73;;;;;;;26.38;59.09;99880.31;5033202;28;20037;-81
2021/08/10 04:46:23;;;;;;;26.73;13.25;;;;;;;26.66;58.59;99879.09;5034994;28;20045;-77
2021/08/10 04:48:49;;;;;;;25.30;13.20;;;;;;;26.77;57.08;99891.63;5036006;28;20468;-78
2021/08/10 04:51:16;;;;;;;23.77;12.50;;;;;;;26.90;56.50;99884.44;4999669;28;20115;-81
2021/08/10 04:53:45;;;;;;;29.20;12.20;;;;;;;26.88;56.09;99858.81;4985531;28;20156;-78
2021/08/10 04:56:19;;;;;;;30.80;12.18;;;;;;;27.22;55.60;99880.25;5018259;28;20461;-77
2021/08/10 04:58:47;;;;;;;28.13;11.48;;;;;;;27.21;54.00;99873.22;5000472;28;20049;-79
2021/08/10 05:01:17;;;;;;;22.10;12.20;;;;;;;27.00;53.46;99859.69;5015596;28;20050;-79
2021/08/10 05:03:46;;;;;;;23.63;11.45;;;;;;;26.98;52.64;99865.16;5015777;28;20065;-80
2021/08/10 05:06:12;;;;;;;18.52;11.18;;;;;;;26.88;52.22;99866.81;5026022;28;20034;-76
2021/08/10 05:08:51;;;;;;;15.05;10.48;;;;;;;26.87;52.15;99870.47;5007238;28;20034;-80
2021/08/10 05:11:39;;;;;;;16.00;10.43;;;;;;;27.09;51.92;99875.03;5006587;28;20038;-79
2021/08/10 05:14:09;;;;;;;19.58;9.90;;;;;;;27.34;52.17;99865.94;5000981;28;20064;-79
2021/08/10 05:16:35;;;;;;;16.73;10.15;;;;;;;27.57;51.08;99873.16;4998421;28;20065;-78
2021/08/10 05:19:04;;;;;;;18.05;10.88;;;;;;;27.33;50.08;99866.06;5014613;28;20042;-78
2021/08/10 05:21:34;;;;;;;20.50;10.63;;;;;;;26.90;50.26;99870.22;4998157;28;20042;-79
2021/08/10 05:24:00;;;;;;;17.73;10.18;;;;;;;26.91;50.90;99867.47;5015106;28;20068;-78
2021/08/10 05:26:51;;;;;;;14.05;9.68;;;;;;;26.76;49.82;99869.44;4997972;28;20083;-78
2021/08/10 05:29:20;;;;;;;13.15;9.73;;;;;;;26.69;51.00;99857.53;5004624;28;20190;-77
2021/08/10 05:31:50;;;;;;;19.58;9.75;;;;;;;26.64;50.88;99846.34;5002711;28;20085;-78
2021/08/10 05:34:33;;;;;;;17.38;9.77;;;;;;;26.90;50.29;99878.25;5018276;28;20037;-76
2021/08/10 05:37:00;;;;;;;16.02;9.02;;;;;;;26.80;50.24;99885.22;5020673;28;20041;-77
2021/08/10 05:39:31;;;;;;;15.35;8.93;;;;;;;26.55;50.18;99850.56;5043640;28;20505;-79
2021/08/10 05:41:57;;;;;;;19.13;8.73;;;;;;;26.77;49.99;99872.94;5027231;28;20097;-77
2021/08/10 05:44:23;;;;;;;16.30;9.75;;;;;;;26.52;49.15;99828.59;5017145;28;20045;-76
2021/08/10 05:46:50;;;;;;;16.77;9.65;;;;;;;25.96;49.38;99752.69;5013419;28;20045;-78
2021/08/10 05:49:25;;;;;;;26.08;9.32;;;;;;;25.90;49.92;99743.34;5004485;28;20037;-79
2021/08/10 05:52:17;;;;;;;19.65;9.65;;;;;;;26.76;49.79;99874.78;5006017;28;20056;-79
2021/08/10 05:54:49;;;;;;;17.65;9.23;;;;;;;26.49;50.34;99792.31;5009798;28;20038;-77
2021/08/10 05:57:15;;;;;;;16.38;9.57;;;;;;;27.06;49.42;99827.19;5022444;28;20087;-78
2021/08/10 05:59:44;;;;;;;15.57;9.20;;;;;;;27.14;49.62;99808.75;5007515;28;20113;-79
2021/08/10 06:02:10;;;;;;;15.32;9.38;;;;;;;27.23;48.35;99796.50;5023676;28;20041;-78
2021/08/10 06:04:36;;;;;;;16.10;9.85;;;;;;;27.44;48.19;99793.09;5005013;28;20052;-79
2021/08/10 06:07:06;;;;;;;13.90;9.73;;;;;;;28.48;47.74;99871.16;5024097;28;20077;-79
2021/08/10 06:09:37;;;;;;;17.33;9.52;;;;;;;29.26;46.91;99852.13;5021674;28;20033;-80
2021/08/10 06:12:03;;;;;;;17.27;9.60;;;;;;;30.40;45.99;99858.25;4989163;28;20129;-79
2021/08/10 06:14:31;;;;;;;17.88;9.95;;;;;;;31.65;43.77;99864.56;5004532;28;20521;-80
2021/08/10 06:16:57;;;;;;;17.40;10.15;;;;;;;32.64;40.45;99852.16;5004726;28;20087;-78
2021/08/10 06:19:23;;;;;;;16.38;8.70;;;;;;;34.33;39.00;99831.03;5017670;28;20057;-78
2021/08/10 06:21:52;;;;;;;18.88;9.27;;;;;;;35.97;36.14;99818.16;5019244;28;20045;-76
2021/08/10 06:24:30;;;;;;;19.75;9.80;;;;;;;37.43;33.33;99838.88;5021020;28;20149;-77
2021/08/10 06:27:08;;;;;;;;;;;;;;;37.85;31.66;99860.88;5006844;28;20057;-77
2021/08/10 06:29:44;;;;;;;16.00;8.00;;;;;;;37.67;31.86;99778.03;5046888;28;19917;-79
2021/08/10 06:32:16;;;;;;;15.75;9.27;;;;;;;38.22;29.90;99757.69;5028702;28;20037;-78
2021/08/10 06:34:46;;;;;;;29.15;12.48;;;;;;;39.06;28.08;99791.38;5043673;28;20041;-77
2021/08/10 06:37:12;;;;;;;19.67;8.18;;;;;;;38.70;27.89;99831.25;5043348;28;20151;-79
2021/08/10 06:39:52;;;;;;;14.57;8.82;;;;;;;37.32;28.18;99753.38;5013594;28;20094;-79
2021/08/10 06:42:28;;;;;;;14.52;10.05;;;;;;;36.71;29.05;99854.69;5027560;28;20042;-77
2021/08/10 06:45:10;;;;;;;15.00;7.75;;;;;;;35.20;30.43;99837.75;5014759;28;20041;-80
2021/08/10 06:47:37;;;;;;;14.40;7.65;;;;;;;34.24;31.33;99860.75;5010843;28;20137;-79
2021/08/10 06:50:07;;;;;;;16.30;7.30;;;;;;;33.65;32.81;99883.13;5010511;28;20092;-79
2021/08/10 06:52:33;;;;;;;20.70;11.93;;;;;;;32.65;34.05;99850.31;5048435;28;20096;-78
2021/08/10 06:55:03;;;;;;;17.58;12.60;;;;;;;32.58;34.61;99864.41;5049937;28;20053;-79
2021/08/10 06:57:43;;;;;;;;;;;;;;;;;;;;;
2021/08/10 07:00:10;;;;;;;16.83;11.73;;;;;;;31.45;34.85;99844.97;5033318;28;20045;-80
2021/08/10 07:02:37;;;;;;;14.68;9.55;;;;;;;31.11;35.86;99784.53;5053494;28;20048;-78
2021/08/10 07:05:09;;;;;;;14.35;8.60;;;;;;;31.17;36.06;99784.00;5019164;28;20037;-79
2021/08/10 07:07:36;;;;;;;14.27;9.63;;;;;;;30.97;36.33;99777.81;5042895;28;20033;-80
2021/08/10 07:10:06;;;;;;;14.45;9.45;;;;;;;31.37;36.54;99810.78;5004469;28;20041;-78
2021/08/10 07:12:35;;;;;;;14.18;8.63;;;;;;;31.80;36.72;99863.06;5036133;28;20041;-79
2021/08/10 07:15:01;;;;;;;14.48;7.80;;;;;;;31.77;36.03;99854.47;5035779;28;20424;-77
2021/08/10 07:17:48;;;;;;;12.32;7.60;;;;;;;31.76;36.32;99842.84;5011962;28;20041;-78
2021/08/10 07:20:27;;;;;;;15.48;9.13;;;;;;;31.49;36.92;99800.69;5014779;28;20033;-78
2021/08/10 07:22:57;;;;;;;16.00;8.55;;;;;;;31.63;37.26;99810.91;4997238;28;20458;-79
2021/08/10 07:25:32;;;;;;;17.52;9.13;;;;;;;31.74;37.54;99839.47;5017218;28;20041;-76
2021/08/10 07:28:02;;;;;;;15.18;8.23;;;;;;;31.82;37.57;99866.47;4988670;28;20041;-77
2021/08/10 07:30:28;;;;;;;17.55;8.90;;;;;;;31.57;37.96;99806.13;5034905;28;20037;-78
2021/08/10 07:32:58;;;;;;;15.65;8.52;;;;;;;32.08;37.69;99856.81;5003400;28;20448;-77
2021/08/10 07:35:30;;;;;;;17.95;9.25;;;;;;;31.54;37.83;99725.81;5035096;28;20045;-77
2021/08/10 07:38:03;;;;;;;16.35;9.30;;;;;;;31.90;37.04;99725.84;5017633;28;20048;-77
2021/08/10 07:40:37;;;;;;;19.02;8.73;;;;;;;33.26;36.40;99855.78;5033960;28;20065;-80
2021/08/10 07:44:22;;;;;;;14.23;8.82;;;;;;;33.17;35.57;99831.47;5035412;28;20057;-78
2021/08/10 07:46:50;;;;;;;16.85;9.15;;;;;;;33.92;35.90;99856.94;4993543;28;20037;-79
2021/08/10 07:49:23;;;;;;;16.35;9.23;;;;;;;35.96;33.78;99815.66;5020658;28;20132;-80
2021/08/10 07:51:49;;;;;;;23.17;12.23;;;;;;;37.23;31.13;99811.47;5051209;28;20037;-76
2021/08/10 07:54:16;;;;;;;21.05;10.77;;;;;;;37.91;29.80;99777.88;5032781;28;20045;-77
2021/08/10 07:56:43;;;;;;;17.55;9.38;;;;;;;38.62;28.75;99823.25;5018306;28;20049;-79
2021/08/10 07:59:24;;;;;;;19.40;9.98;;;;;;;38.69;28.08;99809.69;5020552;28;20037;-77
2021/08/10 08:01:50;;;;;;;14.00;8.68;;;;;;;38.00;28.09;99835.59;5019237;28;20199;-79
2021/08/10 08:04:16;;;;;;;12.48;8.88;;;;;;;36.63;30.30;99841.22;5002020;28;20164;-76
2021/08/10 08:06:42;;;;;;;15.40;8.68;;;;;;;36.10;30.63;99839.22;5038336;28;20095;-77
2021/08/10 08:09:08;;;;;;;12.85;8.35;;;;;;;36.08;30.58;99845.84;5035128;28;20088;-77
2021/08/10 08:11:35;;;;;;;11.32;8.27;;;;;;;36.67;30.10;99833.56;5016330;28;20045;-80
2021/08/10 08:14:02;;;;;;;10.73;7.50;;;;;;;37.81;27.90;99814.31;5018618;28;20037;-77
2021/08/10 08:16:28;;;;;;;14.68;6.57;;;;;;;38.72;27.50;99820.16;5016775;28;20060;-79
2021/08/10 08:18:54;;;;;;;10.98;6.53;;;;;;;40.01;25.27;99819.78;5014503;28;20041;-76
2021/08/10 08:21:26;;;;;;;9.98;7.50;;;;;;;40.42;24.81;99826.97;4999050;28;20081;-79
2021/08/10 08:23:56;;;;;;;15.27;8.50;;;;;;;40.44;24.43;99827.59;4996273;28;20034;-82
2021/08/10 08:26:22;;;;;;;10.63;6.63;;;;;;;40.68;25.21;99821.75;5012831;28;20052;-81
2021/08/10 08:28:52;;;;;;;15.25;8.27;;;;;;;40.36;24.84;99806.88;5013920;28;20077;-81
2021/08/10 08:31:18;;;;;;;14.85;7.95;;;;;;;40.20;24.56;99832.63;5031576;28;20045;-78
2021/08/10 08:34:03;;;;;;;14.82;7.80;;;;;;;39.06;25.64;99812.25;5017445;28;20381;-77
2021/08/10 08:36:29;;;;;;;16.92;7.90;;;;;;;39.10;25.74;99829.88;5031349;28;20540;-80
2021/08/10 08:39:05;;;;;;;14.30;7.50;;;;;;;39.25;25.54;99811.53;5031800;28;20048;-78
2021/08/10 08:41:32;;;;;;;11.00;7.22;;;;;;;39.40;25.73;99830.47;5031508;28;20476;-80
2021/08/10 08:44:01;;;;;;;11.30;8.50;;;;;;;38.69;26.33;99840.44;5032340;28;20155;-77
2021/08/10 08:46:56;;;;;;;12.60;7.68;;;;;;;38.42;27.01;99834.78;5032669;28;20041;-79
2021/08/10 08:49:37;;;;;;;11.40;8.02;;;;;;;38.94;26.32;99812.84;5018123;28;20195;-78
2021/08/10 08:52:13;;;;;;;20.65;8.45;;;;;;;39.79;25.09;99830.00;5017568;28;20049;-79
2021/08/10 08:54:44;;;;;;;11.07;8.30;;;;;;;39.96;25.52;99835.91;5029603;28;20056;-78
2021/08/10 08:57:10;;;;;;;14.13;7.93;;;;;;;39.67;25.04;99838.72;5033990;28;20053;-78
2021/08/10 08:59:43;;;;;;;17.77;8.90;;;;;;;39.59;25.23;99822.56;5044256;28;20080;-77
2021/08/10 09:02:19;;;;;;;17.60;8.10;;;;;;;39.52;25.64;99830.72;5018076;28;20493;-79
2021/08/10 09:04:47;;;;;;;12.65;8.52;;;;;;;40.18;24.66;99840.13;5014951;28;20493;-79
2021/08/10 09:07:16;;;;;;;12.75;7.80;;;;;;;39.52;24.98;99841.59;5015493;28;20048;-79
2021/08/10 09:09:45;;;;;;;11.45;7.32;;;;;;;38.70;26.13;99836.69;4998619;28;20033;-80
2021/08/10 09:12:17;;;;;;;11.60;6.72;;;;;;;38.24;26.74;99837.94;5019299;28;20096;-79
2021/08/10 09:14:54;;;;;;;15.73;6.43;;;;;;;37.86;26.68;99840.00;5018950;28;20512;-80
2021/08/10 09:17:24;;;;;;;13.23;6.28;;;;;;;37.00;27.14;99788.03;5030350;28;20343;-79
2021/08/10 09:20:03;;;;;;;11.80;6.30;;;;;;;37.21;26.71;99824.38;5017087;28;20413;-80
2021/08/10 09:22:34;;;;;;;10.45;6.00;;;;;;;36.76;27.33;99854.13;5000407;28;20053;-78
2021/08/10 09:25:31;;;;;;;11.05;6.13;;;;;;;36.19;28.33;99848.13;5021953;28;20080;-81
2021/08/10 09:28:14;;;;;;;11.02;6.57;;;;;;;35.24;28.50;99779.59;5016974;28;20100;-77
2021/08/10 09:30:46;;;;;;;11.23;6.13;;;;;;;35.04;28.95;99812.44;5033869;28;20041;-80
2021/08/10 09:33:13;;;;;;;13.70;6.60;;;;;;;34.64;29.70;99854.72;5035060;28;20128;-78
2021/08/10 09:36:17;;;;;;;14.68;7.13;;;;;;;33.55;31.19;99817.69;5019339;28;20378;-79
2021/08/10 09:38:47;;;;;;;12.68;7.18;;;;;;;33.51;31.63;99819.03;5019259;28;20046;-78
2021/08/10 09:41:17;;;;;;;9.70;7.32;;;;;;;33.53;32.07;99852.06;5021677;28;20037;-79
2021/08/10 09:43:50;;;;;;;9.50;6.70;;;;;;;32.25;32.62;99731.34;5020352;28;20064;-78
2021/08/10 09:46:26;;;;;;;15.80;7.18;;;;;;;32.65;32.71;99861.09;5002642;28;20080;-77
2021/08/10 09:48:58;;;;;;;12.95;8.07;;;;;;;32.03;33.75;99859.97;5034745;28;20041;-76
2021/08/10 09:51:37;;;;;;;9.52;7.00;;;;;;;31.70;33.52;99855.03;5017623;28;20048;-77
2021/08/10 09:54:12;;;;;;;10.77;6.50;;;;;;;31.84;34.43;99844.78;5017416;28;20041;-77
2021/08/10 09:56:52;;;;;;;13.18;6.68;;;;;;;32.15;33.92;99850.66;5017740;28;20057;-76
2021/08/10 09:59:22;;;;;;;7.93;6.22;;;;;;;32.47;33.25;99847.63;5001515;28;20045;-78
2021/08/10 10:01:52;;;;;;;10.35;7.20;;;;;;;32.44;33.92;99830.78;5018555;28;20041;-77
2021/08/10 10:04:30;;;;;;;10.00;5.85;;;;;;;32.62;33.18;99847.94;5020882;28;20046;-76
2021/08/10 10:07:11;;;;;;;11.63;6.70;;;;;;;32.32;33.31;99844.63;5019008;28;20037;-75
2021/08/10 10:09:49;;;;;;;7.00;6.15;;;;;;;32.58;33.63;99858.16;5014782;28;20041;-77
2021/08/10 10:12:22;;;;;;;10.95;6.55;;;;;;;32.33;33.85;99847.16;4998339;28;20429;-76
2021/08/10 10:14:55;;;;;;;12.20;6.60;;;;;;;31.92;34.16;99838.66;4997004;28;20042;-80
2021/08/10 10:17:25;;;;;;;16.80;9.45;;;;;;;31.58;35.48;99850.84;5015011;28;20551;-76
2021/08/10 10:19:54;;;;;;;;;;;;;;;31.52;35.46;99851.44;5013520;28;20490;-76
2021/08/10 10:22:22;;;;;;;9.75;7.18;;;;;;;31.37;35.40;99806.22;5014158;28;19968;-76
2021/08/10 10:24:59;;;;;;;14.55;8.13;;;;;;;31.88;35.06;99864.19;5013454;28;20505;-77
2021/08/10 10:27:25;;;;;;;11.35;7.60;;;;;;;32.02;35.96;99860.97;4981537;28;20052;-76
2021/08/10 10:29:56;;;;;;;13.52;7.85;;;;;;;32.09;35.00;99832.47;5041436;28;20041;-78
2021/08/10 10:32:24;;;;;;;10.55;6.82;;;;;;;32.23;35.70;99849.91;5035232;28;20516;-77
2021/08/10 10:34:51;;;;;;;14.30;6.45;;;;;;;32.02;35.52;99852.91;4984798;28;20041;-78
2021/08/10 10:37:28;;;;;;;11.00;6.10;;;;;;;31.92;35.87;99846.72;5016912;28;20143;-76
2021/08/10 10:40:03;;;;;;;7.47;6.22;;;;;;;31.46;36.48;99868.16;5002876;28;20488;-79
2021/08/10 10:42:31;;;;;;;8.77;6.15;;;;;;;30.95;37.65;99863.91;5035828;28;20045;-78
2021/08/10 10:44:57;;;;;;;10.45;6.50;;;;;;;30.52;38.13;99870.56;5020714;28;20069;-75
2021/08/10 10:47:33;;;;;;;14.48;7.00;;;;;;;30.25;38.62;99872.09;5025794;28;20056;-75
2021/08/10 10:49:59;;;;;;;9.20;6.30;;;;;;;30.00;39.45;99871.63;5054653;28;20096;-77
2021/08/10 10:52:29;;;;;;;11.32;6.95;;;;;;;29.75;39.69;99840.78;5051591;28;20049;-76
2021/08/10 10:54:58;;;;;;;11.25;6.95;;;;;;;29.09;40.11;99764.38;5045786;28;20038;-74
2021/08/10 10:57:38;;;;;;;10.10;7.10;;;;;;;29.55;40.31;99853.25;5037839;28;20057;-77
2021/08/10 11:00:04;;;;;;;11.57;7.00;;;;;;;29.48;41.00;99854.78;5004842;28;20520;-76
2021/08/10 11:02:33;;;;;;;10.50;6.65;;;;;;;29.68;40.97;99855.72;5035554;28;20110;-74
2021/08/10 11:05:06;;;;;;;9.55;6.60;;;;;;;29.91;40.80;99859.00;5033569;28;20068;-76
2021/08/10 11:07:36;;;;;;;10.13;6.93;;;;;;;29.78;40.84;99845.00;5032965;28;20056;-74
2021/08/10 11:10:06;;;;;;;12.23;6.53;;;;;;;29.65;41.34;99846.13;5032818;28;20033;-78
2021/08/10 11:12:43;;;;;;;15.20;7.40;;;;;;;29.83;41.21;99845.47;5015742;28;20045;-75
2021/08/10 11:15:16;;;;;;;12.55;7.18;;;;;;;29.57;41.54;99848.63;5016038;28;20049;-76
2021/08/10 11:18:09;;;;;;;12.52;7.07;;;;;;;29.31;42.26;99851.72;5027066;28;20049;-76
2021/08/10 11:20:35;;;;;;;7.68;6.88;;;;;;;29.22;42.49;99847.19;5014525;28;20525;-77
2021/08/10 11:26:07;;;;;;;17.42;7.70;;;;;;;28.70;43.21;99850.63;5033407;28;20416;-78
2021/08/10 11:28:36;;;;;;;12.45;8.10;;;;;;;28.46;44.25;99858.91;5014939;28;20053;-78
2021/08/10 11:31:06;;;;;;;10.38;7.00;;;;;;;28.30;44.71;99849.47;5013098;28;20076;-77
2021/08/10 11:33:40;;;;;;;11.18;6.88;;;;;;;28.20;45.00;99848.53;5012780;28;20041;-77
2021/08/10 11:36:09;;;;;;;13.82;7.55;;;;;;;28.03;45.77;99849.88;5020884;28;20045;-76
2021/08/10 11:38:44;;;;;;;13.73;7.68;;;;;;;28.14;45.77;99860.56;5031557;28;20539;-77
2021/08/10 11:41:12;;;;;;;13.38;7.63;;;;;;;28.16;45.21;99849.75;5034329;28;20751;-78
2021/08/10 11:43:42;;;;;;;15.18;8.20;;;;;;;27.99;45.71;99851.09;5033875;28;20063;-78
2021/08/10 11:46:20;;;;;;;11.65;8.27;;;;;;;28.00;46.30;99852.78;5016364;28;20049;-77